sensor_id;sensor_type;location;lat;lon;timestamp;temperature;humidity
9215;DHT22;4642;51.364;6.788;2022-11-24T00:01:54;7.30;99.90
9215;DHT22;4642;51.364;6.788;2022-11-24T00:04:19;7.30;99.90
9215;DHT22;4642;51.364;6.788;2022-11-24T00:06:45;7.20;99.90
9215;DHT22;4642;51.364;6.788;2022-11-24T00:09:10;7.20;99.90
9215;DHT22;4642;51.364;6.788;2022-11-24T00:11:36;7.10;99.90
9215;DHT22;4642;51.364;6.788;2022-11-24T00:14:03;7.10;99.90
9215;DHT22;4642;51.364;6.788;2022-11-24T00:16:34;7.10;99.90
9215;DHT22;4642;51.364;6.788;2022-11-24T00:19:02;7.10;99.90
9215;DHT22;4642;51.364;6.788;2022-11-24T00:21:29;7.10;99.90
9215;DHT22;4642;51.364;6.788;2022-11-24T00:23:55;7.10;99.90
9215;DHT22;4642;51.364;6.788;2022-11-24T00:26:29;7.10;99.90
9215;DHT22;4642;51.364;6.788;2022-11-24T00:28:57;7.00;99.90
9215;DHT22;4642;51.364;6.788;2022-11-24T00:31:28;7.00;99.90
9215;DHT22;4642;51.364;6.788;2022-11-24T00:33:57;7.00;99.90
9215;DHT22;4642;51.364;6.788;2022-11-24T00:36:25;7.00;99.90
9215;DHT22;4642;51.364;6.788;2022-11-24T00:38:56;7.00;99.90
9215;DHT22;4642;51.364;6.788;2022-11-24T00:41:22;7.00;99.90
9215;DHT22;4642;51.364;6.788;2022-11-24T00:43:48;6.90;99.90
9215;DHT22;4642;51.364;6.788;2022-11-24T00:46:15;6.90;99.90
9215;DHT22;4642;51.364;6.788;2022-11-24T00:48:41;6.90;99.90
9215;DHT22;4642;51.364;6.788;2022-11-24T00:51:09;6.90;99.90
9215;DHT22;4642;51.364;6.788;2022-11-24T00:53:35;6.90;99.90
9215;DHT22;4642;51.364;6.788;2022-11-24T00:56:01;6.90;99.90
9215;DHT22;4642;51.364;6.788;2022-11-24T00:58:28;6.90;99.90
9215;DHT22;4642;51.364;6.788;2022-11-24T01:00:54;6.90;99.90
9215;DHT22;4642;51.364;6.788;2022-11-24T01:03:25;6.90;99.90
9215;DHT22;4642;51.364;6.788;2022-11-24T01:05:51;6.90;99.90
9215;DHT22;4642;51.364;6.788;2022-11-24T01:08:16;6.80;99.90
9215;DHT22;4642;51.364;6.788;2022-11-24T01:10:42;6.80;99.90
9215;DHT22;4642;51.364;6.788;2022-11-24T01:13:07;6.90;99.90
9215;DHT22;4642;51.364;6.788;2022-11-24T01:15:34;6.80;99.90
9215;DHT22;4642;51.364;6.788;2022-11-24T01:18:00;6.80;99.90
9215;DHT22;4642;51.364;6.788;2022-11-24T01:20:25;6.80;99.90
9215;DHT22;4642;51.364;6.788;2022-11-24T01:22:51;6.80;99.90
9215;DHT22;4642;51.364;6.788;2022-11-24T01:25:16;6.80;99.90
9215;DHT22;4642;51.364;6.788;2022-11-24T01:27:42;6.80;99.90
9215;DHT22;4642;51.364;6.788;2022-11-24T01:30:08;6.80;99.90
9215;DHT22;4642;51.364;6.788;2022-11-24T01:32:34;6.80;99.90
9215;DHT22;4642;51.364;6.788;2022-11-24T01:35:01;6.80;99.90
9215;DHT22;4642;51.364;6.788;2022-11-24T01:37:26;6.90;99.90
9215;DHT22;4642;51.364;6.788;2022-11-24T01:39:52;6.80;99.90
9215;DHT22;4642;51.364;6.788;2022-11-24T01:42:17;6.90;99.90
9215;DHT22;4642;51.364;6.788;2022-11-24T01:44:43;6.90;99.90
9215;DHT22;4642;51.364;6.788;2022-11-24T01:47:28;6.90;99.90
9215;DHT22;4642;51.364;6.788;2022-11-24T01:49:59;6.90;99.90
9215;DHT22;4642;51.364;6.788;2022-11-24T01:52:39;7.00;99.90
9215;DHT22;4642;51.364;6.788;2022-11-24T01:55:08;7.00;99.90
9215;DHT22;4642;51.364;6.788;2022-11-24T01:57:40;7.00;99.90
9215;DHT22;4642;51.364;6.788;2022-11-24T02:00:09;7.10;99.90
9215;DHT22;4642;51.364;6.788;2022-11-24T02:02:35;7.10;99.90
9215;DHT22;4642;51.364;6.788;2022-11-24T02:05:23;7.10;99.90
9215;DHT22;4642;51.364;6.788;2022-11-24T02:07:52;7.10;99.90
9215;DHT22;4642;51.364;6.788;2022-11-24T02:10:18;7.20;99.90
9215;DHT22;4642;51.364;6.788;2022-11-24T02:12:46;7.10;99.90
9215;DHT22;4642;51.364;6.788;2022-11-24T02:15:14;7.20;99.90
9215;DHT22;4642;51.364;6.788;2022-11-24T02:17:40;7.20;99.90
9215;DHT22;4642;51.364;6.788;2022-11-24T02:20:07;7.20;99.90
9215;DHT22;4642;51.364;6.788;2022-11-24T02:25:12;7.20;99.90
9215;DHT22;4642;51.364;6.788;2022-11-24T02:27:42;7.20;99.90
9215;DHT22;4642;51.364;6.788;2022-11-24T02:30:09;7.20;99.90
9215;DHT22;4642;51.364;6.788;2022-11-24T02:32:38;7.20;99.90
9215;DHT22;4642;51.364;6.788;2022-11-24T02:35:06;7.20;99.90
9215;DHT22;4642;51.364;6.788;2022-11-24T02:37:32;7.20;99.90
9215;DHT22;4642;51.364;6.788;2022-11-24T02:39:57;7.20;99.90
9215;DHT22;4642;51.364;6.788;2022-11-24T02:42:24;7.20;99.90
9215;DHT22;4642;51.364;6.788;2022-11-24T02:44:54;7.20;99.90
9215;DHT22;4642;51.364;6.788;2022-11-24T02:47:21;7.20;99.90
9215;DHT22;4642;51.364;6.788;2022-11-24T02:49:46;7.20;99.90
9215;DHT22;4642;51.364;6.788;2022-11-24T02:52:13;7.30;99.90
9215;DHT22;4642;51.364;6.788;2022-11-24T02:54:38;7.30;99.90
9215;DHT22;4642;51.364;6.788;2022-11-24T02:57:04;7.30;99.90
9215;DHT22;4642;51.364;6.788;2022-11-24T02:59:30;7.30;99.90
9215;DHT22;4642;51.364;6.788;2022-11-24T03:01:55;7.30;99.90
9215;DHT22;4642;51.364;6.788;2022-11-24T03:04:21;7.40;99.90
9215;DHT22;4642;51.364;6.788;2022-11-24T03:06:47;7.40;99.90
9215;DHT22;4642;51.364;6.788;2022-11-24T03:09:12;7.40;99.90
9215;DHT22;4642;51.364;6.788;2022-11-24T03:11:38;7.50;99.90
9215;DHT22;4642;51.364;6.788;2022-11-24T03:14:04;7.50;99.90
9215;DHT22;4642;51.364;6.788;2022-11-24T03:16:30;7.50;99.90
9215;DHT22;4642;51.364;6.788;2022-11-24T03:18:56;7.40;99.90
9215;DHT22;4642;51.364;6.788;2022-11-24T03:21:21;7.40;99.90
9215;DHT22;4642;51.364;6.788;2022-11-24T03:23:47;7.40;99.90
9215;DHT22;4642;51.364;6.788;2022-11-24T03:26:16;7.40;99.90
9215;DHT22;4642;51.364;6.788;2022-11-24T03:28:42;7.40;99.90
9215;DHT22;4642;51.364;6.788;2022-11-24T03:31:09;7.40;99.90
9215;DHT22;4642;51.364;6.788;2022-11-24T03:33:35;7.40;99.90
9215;DHT22;4642;51.364;6.788;2022-11-24T03:36:01;7.40;99.90
9215;DHT22;4642;51.364;6.788;2022-11-24T03:38:27;7.40;99.90
9215;DHT22;4642;51.364;6.788;2022-11-24T03:40:53;7.40;99.90
9215;DHT22;4642;51.364;6.788;2022-11-24T03:43:18;7.30;99.90
9215;DHT22;4642;51.364;6.788;2022-11-24T03:45:45;7.40;99.90
9215;DHT22;4642;51.364;6.788;2022-11-24T03:48:11;7.40;99.90
9215;DHT22;4642;51.364;6.788;2022-11-24T03:50:36;7.40;99.90
9215;DHT22;4642;51.364;6.788;2022-11-24T03:53:02;7.40;99.90
9215;DHT22;4642;51.364;6.788;2022-11-24T03:55:27;7.40;99.90
9215;DHT22;4642;51.364;6.788;2022-11-24T03:57:53;7.40;99.90
9215;DHT22;4642;51.364;6.788;2022-11-24T04:00:18;7.40;99.90
9215;DHT22;4642;51.364;6.788;2022-11-24T04:02:44;7.50;99.90
9215;DHT22;4642;51.364;6.788;2022-11-24T04:05:10;7.50;99.90
9215;DHT22;4642;51.364;6.788;2022-11-24T04:07:35;7.50;99.90
9215;DHT22;4642;51.364;6.788;2022-11-24T04:10:01;7.50;99.90
9215;DHT22;4642;51.364;6.788;2022-11-24T04:12:26;7.50;99.90
9215;DHT22;4642;51.364;6.788;2022-11-24T04:15:15;7.50;99.90
9215;DHT22;4642;51.364;6.788;2022-11-24T04:17:42;7.50;99.90
9215;DHT22;4642;51.364;6.788;2022-11-24T04:20:09;7.60;99.90
9215;DHT22;4642;51.364;6.788;2022-11-24T04:22:35;7.60;99.90
9215;DHT22;4642;51.364;6.788;2022-11-24T04:25:01;7.60;99.90
9215;DHT22;4642;51.364;6.788;2022-11-24T04:27:26;7.60;99.90
9215;DHT22;4642;51.364;6.788;2022-11-24T04:29:52;7.60;99.90
9215;DHT22;4642;51.364;6.788;2022-11-24T04:32:18;7.60;99.90
9215;DHT22;4642;51.364;6.788;2022-11-24T04:34:43;7.70;99.90
9215;DHT22;4642;51.364;6.788;2022-11-24T04:37:09;7.60;99.90
9215;DHT22;4642;51.364;6.788;2022-11-24T04:39:35;7.70;99.90
9215;DHT22;4642;51.364;6.788;2022-11-24T04:42:00;7.70;99.90
9215;DHT22;4642;51.364;6.788;2022-11-24T04:44:26;7.70;99.90
9215;DHT22;4642;51.364;6.788;2022-11-24T04:46:51;7.70;99.90
9215;DHT22;4642;51.364;6.788;2022-11-24T04:49:17;7.70;99.90
9215;DHT22;4642;51.364;6.788;2022-11-24T04:51:43;7.80;99.90
9215;DHT22;4642;51.364;6.788;2022-11-24T04:54:10;7.60;99.90
9215;DHT22;4642;51.364;6.788;2022-11-24T04:56:36;7.80;99.90
9215;DHT22;4642;51.364;6.788;2022-11-24T04:59:01;7.80;99.90
9215;DHT22;4642;51.364;6.788;2022-11-24T05:01:27;7.80;99.90
9215;DHT22;4642;51.364;6.788;2022-11-24T05:03:53;7.90;99.90
9215;DHT22;4642;51.364;6.788;2022-11-24T05:06:20;7.90;99.90
9215;DHT22;4642;51.364;6.788;2022-11-24T05:08:47;7.90;99.90
9215;DHT22;4642;51.364;6.788;2022-11-24T05:11:13;7.90;99.90
9215;DHT22;4642;51.364;6.788;2022-11-24T05:13:38;7.90;99.90
9215;DHT22;4642;51.364;6.788;2022-11-24T05:16:04;7.90;99.90
9215;DHT22;4642;51.364;6.788;2022-11-24T05:18:30;7.90;99.90
9215;DHT22;4642;51.364;6.788;2022-11-24T05:20:56;8.00;99.90
9215;DHT22;4642;51.364;6.788;2022-11-24T05:23:22;7.90;99.90
9215;DHT22;4642;51.364;6.788;2022-11-24T05:25:48;7.90;99.90
9215;DHT22;4642;51.364;6.788;2022-11-24T05:28:13;7.90;99.90
9215;DHT22;4642;51.364;6.788;2022-11-24T05:30:39;7.90;99.90
9215;DHT22;4642;51.364;6.788;2022-11-24T05:33:07;7.90;99.90
9215;DHT22;4642;51.364;6.788;2022-11-24T05:35:34;7.90;99.90
9215;DHT22;4642;51.364;6.788;2022-11-24T05:38:01;7.90;99.90
9215;DHT22;4642;51.364;6.788;2022-11-24T05:40:27;7.90;99.90
9215;DHT22;4642;51.364;6.788;2022-11-24T05:42:52;7.90;99.90
9215;DHT22;4642;51.364;6.788;2022-11-24T05:45:20;8.00;99.90
9215;DHT22;4642;51.364;6.788;2022-11-24T05:47:47;8.00;99.90
9215;DHT22;4642;51.364;6.788;2022-11-24T05:50:15;8.00;99.90
9215;DHT22;4642;51.364;6.788;2022-11-24T05:52:41;8.00;99.90
9215;DHT22;4642;51.364;6.788;2022-11-24T05:55:08;8.00;99.90
9215;DHT22;4642;51.364;6.788;2022-11-24T05:57:34;8.00;99.90
9215;DHT22;4642;51.364;6.788;2022-11-24T06:00:00;8.00;99.90
9215;DHT22;4642;51.364;6.788;2022-11-24T06:02:26;8.10;99.90
9215;DHT22;4642;51.364;6.788;2022-11-24T06:04:51;8.00;99.90
9215;DHT22;4642;51.364;6.788;2022-11-24T06:07:17;8.00;99.90
9215;DHT22;4642;51.364;6.788;2022-11-24T06:09:43;8.00;99.90
9215;DHT22;4642;51.364;6.788;2022-11-24T06:12:10;8.10;99.90
9215;DHT22;4642;51.364;6.788;2022-11-24T06:14:36;8.10;99.90
9215;DHT22;4642;51.364;6.788;2022-11-24T06:17:02;8.00;99.90
9215;DHT22;4642;51.364;6.788;2022-11-24T06:19:28;8.00;99.90
9215;DHT22;4642;51.364;6.788;2022-11-24T06:21:53;8.00;99.90
9215;DHT22;4642;51.364;6.788;2022-11-24T06:24:19;8.10;99.90
9215;DHT22;4642;51.364;6.788;2022-11-24T06:26:44;8.10;99.90
9215;DHT22;4642;51.364;6.788;2022-11-24T06:29:10;8.10;99.90
9215;DHT22;4642;51.364;6.788;2022-11-24T06:31:36;8.10;99.90
9215;DHT22;4642;51.364;6.788;2022-11-24T06:34:05;8.10;99.90
9215;DHT22;4642;51.364;6.788;2022-11-24T06:36:31;8.10;99.90
9215;DHT22;4642;51.364;6.788;2022-11-24T06:38:56;8.10;99.90
9215;DHT22;4642;51.364;6.788;2022-11-24T06:41:22;8.10;99.90
9215;DHT22;4642;51.364;6.788;2022-11-24T06:43:47;8.00;99.90
9215;DHT22;4642;51.364;6.788;2022-11-24T06:46:14;8.10;99.90
9215;DHT22;4642;51.364;6.788;2022-11-24T06:48:39;8.10;99.90
9215;DHT22;4642;51.364;6.788;2022-11-24T06:51:07;8.00;99.90
9215;DHT22;4642;51.364;6.788;2022-11-24T06:53:35;8.00;99.90
9215;DHT22;4642;51.364;6.788;2022-11-24T06:56:08;8.00;99.90
9215;DHT22;4642;51.364;6.788;2022-11-24T06:58:37;8.00;99.90
9215;DHT22;4642;51.364;6.788;2022-11-24T07:01:04;8.00;99.90
9215;DHT22;4642;51.364;6.788;2022-11-24T07:03:29;8.00;99.90
9215;DHT22;4642;51.364;6.788;2022-11-24T07:05:56;8.00;99.90
9215;DHT22;4642;51.364;6.788;2022-11-24T07:08:23;8.00;99.90
9215;DHT22;4642;51.364;6.788;2022-11-24T07:10:48;8.00;99.90
9215;DHT22;4642;51.364;6.788;2022-11-24T07:13:14;8.00;99.90
9215;DHT22;4642;51.364;6.788;2022-11-24T07:15:39;8.00;99.90
9215;DHT22;4642;51.364;6.788;2022-11-24T07:18:05;8.00;99.90
9215;DHT22;4642;51.364;6.788;2022-11-24T07:20:30;8.00;99.90
9215;DHT22;4642;51.364;6.788;2022-11-24T07:22:56;8.00;99.90
9215;DHT22;4642;51.364;6.788;2022-11-24T07:25:23;8.00;99.90
9215;DHT22;4642;51.364;6.788;2022-11-24T07:27:48;8.10;99.90
9215;DHT22;4642;51.364;6.788;2022-11-24T07:30:14;8.10;99.90
9215;DHT22;4642;51.364;6.788;2022-11-24T07:32:40;8.10;99.90
9215;DHT22;4642;51.364;6.788;2022-11-24T07:35:06;8.20;99.90
9215;DHT22;4642;51.364;6.788;2022-11-24T07:37:31;8.20;99.90
9215;DHT22;4642;51.364;6.788;2022-11-24T07:39:57;8.20;99.90
9215;DHT22;4642;51.364;6.788;2022-11-24T07:42:22;8.20;99.90
9215;DHT22;4642;51.364;6.788;2022-11-24T07:44:48;8.20;99.90
9215;DHT22;4642;51.364;6.788;2022-11-24T07:47:14;8.20;99.90
9215;DHT22;4642;51.364;6.788;2022-11-24T07:49:39;8.20;99.90
9215;DHT22;4642;51.364;6.788;2022-11-24T07:52:06;8.10;99.90
9215;DHT22;4642;51.364;6.788;2022-11-24T07:54:32;8.40;99.90
9215;DHT22;4642;51.364;6.788;2022-11-24T07:56:57;8.40;99.90
9215;DHT22;4642;51.364;6.788;2022-11-24T07:59:23;8.40;99.90
9215;DHT22;4642;51.364;6.788;2022-11-24T08:01:49;8.40;99.90
9215;DHT22;4642;51.364;6.788;2022-11-24T08:04:14;8.30;99.90
9215;DHT22;4642;51.364;6.788;2022-11-24T08:06:40;8.40;99.90
9215;DHT22;4642;51.364;6.788;2022-11-24T08:09:05;8.30;99.90
9215;DHT22;4642;51.364;6.788;2022-11-24T08:11:31;8.40;99.90
9215;DHT22;4642;51.364;6.788;2022-11-24T08:13:57;8.40;99.90
9215;DHT22;4642;51.364;6.788;2022-11-24T08:16:23;8.40;99.90
9215;DHT22;4642;51.364;6.788;2022-11-24T08:18:50;8.40;99.90
9215;DHT22;4642;51.364;6.788;2022-11-24T08:21:16;8.40;99.90
9215;DHT22;4642;51.364;6.788;2022-11-24T08:23:42;8.40;99.90
9215;DHT22;4642;51.364;6.788;2022-11-24T08:26:11;8.50;99.90
9215;DHT22;4642;51.364;6.788;2022-11-24T08:28:38;8.50;99.90
9215;DHT22;4642;51.364;6.788;2022-11-24T08:31:09;8.50;99.90
9215;DHT22;4642;51.364;6.788;2022-11-24T08:33:35;8.60;99.90
9215;DHT22;4642;51.364;6.788;2022-11-24T08:36:06;8.60;99.90
9215;DHT22;4642;51.364;6.788;2022-11-24T08:38:32;8.60;99.90
9215;DHT22;4642;51.364;6.788;2022-11-24T08:41:05;8.60;99.90
9215;DHT22;4642;51.364;6.788;2022-11-24T08:43:31;8.60;99.90
9215;DHT22;4642;51.364;6.788;2022-11-24T08:46:05;8.70;99.90
9215;DHT22;4642;51.364;6.788;2022-11-24T08:48:31;8.60;99.90
9215;DHT22;4642;51.364;6.788;2022-11-24T08:50:58;8.70;99.90
9215;DHT22;4642;51.364;6.788;2022-11-24T08:53:24;8.70;99.90
9215;DHT22;4642;51.364;6.788;2022-11-24T08:55:50;8.80;99.90
9215;DHT22;4642;51.364;6.788;2022-11-24T08:58:16;8.80;99.90
9215;DHT22;4642;51.364;6.788;2022-11-24T09:00:42;8.80;99.90
9215;DHT22;4642;51.364;6.788;2022-11-24T09:03:11;8.90;99.90
9215;DHT22;4642;51.364;6.788;2022-11-24T09:05:37;8.90;99.90
9215;DHT22;4642;51.364;6.788;2022-11-24T09:08:02;8.90;99.90
9215;DHT22;4642;51.364;6.788;2022-11-24T09:10:28;9.00;99.90
9215;DHT22;4642;51.364;6.788;2022-11-24T09:12:54;9.00;99.90
9215;DHT22;4642;51.364;6.788;2022-11-24T09:15:19;9.00;99.90
9215;DHT22;4642;51.364;6.788;2022-11-24T09:17:45;9.00;99.90
9215;DHT22;4642;51.364;6.788;2022-11-24T09:20:11;9.00;99.90
9215;DHT22;4642;51.364;6.788;2022-11-24T09:22:37;8.90;99.90
9215;DHT22;4642;51.364;6.788;2022-11-24T09:25:04;9.10;99.90
9215;DHT22;4642;51.364;6.788;2022-11-24T09:27:31;9.10;99.90
9215;DHT22;4642;51.364;6.788;2022-11-24T09:29:56;9.20;99.90
9215;DHT22;4642;51.364;6.788;2022-11-24T09:32:22;9.20;99.90
9215;DHT22;4642;51.364;6.788;2022-11-24T09:34:49;9.10;99.90
9215;DHT22;4642;51.364;6.788;2022-11-24T09:37:16;9.10;99.90
9215;DHT22;4642;51.364;6.788;2022-11-24T09:39:42;9.10;99.90
9215;DHT22;4642;51.364;6.788;2022-11-24T09:42:33;9.10;99.90
9215;DHT22;4642;51.364;6.788;2022-11-24T09:45:18;9.10;99.90
9215;DHT22;4642;51.364;6.788;2022-11-24T09:48:01;9.20;99.90
9215;DHT22;4642;51.364;6.788;2022-11-24T09:50:32;9.20;99.90
9215;DHT22;4642;51.364;6.788;2022-11-24T09:55:41;9.20;99.90
9215;DHT22;4642;51.364;6.788;2022-11-24T10:00:57;9.30;99.90
9215;DHT22;4642;51.364;6.788;2022-11-24T10:03:28;9.30;99.90
9215;DHT22;4642;51.364;6.788;2022-11-24T10:05:54;9.40;99.90
9215;DHT22;4642;51.364;6.788;2022-11-24T10:11:05;9.50;99.90
9215;DHT22;4642;51.364;6.788;2022-11-24T10:13:39;9.60;99.90
9215;DHT22;4642;51.364;6.788;2022-11-24T10:27:44;9.80;99.90
9215;DHT22;4642;51.364;6.788;2022-11-24T10:30:18;9.90;99.90
9215;DHT22;4642;51.364;6.788;2022-11-24T10:32:50;10.00;99.90
9215;DHT22;4642;51.364;6.788;2022-11-24T10:35:39;10.00;99.90
9215;DHT22;4642;51.364;6.788;2022-11-24T10:40:49;10.10;99.90
9215;DHT22;4642;51.364;6.788;2022-11-24T10:43:16;10.20;99.90
9215;DHT22;4642;51.364;6.788;2022-11-24T10:45:42;10.20;99.90
9215;DHT22;4642;51.364;6.788;2022-11-24T10:48:19;10.20;99.90
9215;DHT22;4642;51.364;6.788;2022-11-24T10:50:46;10.20;99.90
9215;DHT22;4642;51.364;6.788;2022-11-24T10:53:24;10.30;99.90
9215;DHT22;4642;51.364;6.788;2022-11-24T10:58:29;10.20;99.90
9215;DHT22;4642;51.364;6.788;2022-11-24T11:00:58;10.30;99.90
9215;DHT22;4642;51.364;6.788;2022-11-24T11:03:30;10.30;99.90
9215;DHT22;4642;51.364;6.788;2022-11-24T11:06:09;10.30;99.90
9215;DHT22;4642;51.364;6.788;2022-11-24T11:08:36;10.40;99.90
9215;DHT22;4642;51.364;6.788;2022-11-24T11:11:26;10.40;99.90
9215;DHT22;4642;51.364;6.788;2022-11-24T11:13:57;10.50;99.90
9215;DHT22;4642;51.364;6.788;2022-11-24T11:16:44;10.40;99.90
9215;DHT22;4642;51.364;6.788;2022-11-24T11:19:37;10.60;99.90
9215;DHT22;4642;51.364;6.788;2022-11-24T11:22:12;10.60;99.90
9215;DHT22;4642;51.364;6.788;2022-11-24T11:24:40;10.70;99.90
9215;DHT22;4642;51.364;6.788;2022-11-24T11:27:24;10.60;99.90
9215;DHT22;4642;51.364;6.788;2022-11-24T11:29:51;10.70;99.90
9215;DHT22;4642;51.364;6.788;2022-11-24T11:32:26;10.70;99.90
9215;DHT22;4642;51.364;6.788;2022-11-24T11:34:55;10.80;99.90
9215;DHT22;4642;51.364;6.788;2022-11-24T11:37:30;10.80;99.90
9215;DHT22;4642;51.364;6.788;2022-11-24T11:39:57;10.80;99.90
9215;DHT22;4642;51.364;6.788;2022-11-24T11:42:36;10.80;99.90
9215;DHT22;4642;51.364;6.788;2022-11-24T11:45:13;10.80;99.90
9215;DHT22;4642;51.364;6.788;2022-11-24T11:50:23;11.00;99.90
9215;DHT22;4642;51.364;6.788;2022-11-24T11:53:15;11.00;99.90
9215;DHT22;4642;51.364;6.788;2022-11-24T11:56:48;11.10;99.90
9215;DHT22;4642;51.364;6.788;2022-11-24T12:04:51;11.10;99.90
9215;DHT22;4642;51.364;6.788;2022-11-24T12:07:24;11.10;99.90
9215;DHT22;4642;51.364;6.788;2022-11-24T12:21:05;11.40;99.90
9215;DHT22;4642;51.364;6.788;2022-11-24T12:37:14;11.50;99.90
9215;DHT22;4642;51.364;6.788;2022-11-24T12:39:56;11.50;99.90
9215;DHT22;4642;51.364;6.788;2022-11-24T12:42:58;11.50;99.90
9215;DHT22;4642;51.364;6.788;2022-11-24T12:45:38;11.50;99.90
9215;DHT22;4642;51.364;6.788;2022-11-24T12:50:43;11.60;99.90
9215;DHT22;4642;51.364;6.788;2022-11-24T12:53:22;11.60;99.90
9215;DHT22;4642;51.364;6.788;2022-11-24T12:55:48;11.60;99.90
9215;DHT22;4642;51.364;6.788;2022-11-24T13:01:30;11.50;99.90
9215;DHT22;4642;51.364;6.788;2022-11-24T13:04:23;11.50;99.90
9215;DHT22;4642;51.364;6.788;2022-11-24T13:07:00;11.50;99.90
9215;DHT22;4642;51.364;6.788;2022-11-24T13:09:27;11.50;99.90
9215;DHT22;4642;51.364;6.788;2022-11-24T13:12:04;11.50;99.90
9215;DHT22;4642;51.364;6.788;2022-11-24T13:14:35;11.50;99.90
9215;DHT22;4642;51.364;6.788;2022-11-24T13:17:26;11.60;99.90
9215;DHT22;4642;51.364;6.788;2022-11-24T13:22:49;11.60;99.90
9215;DHT22;4642;51.364;6.788;2022-11-24T13:25:29;11.60;99.90
9215;DHT22;4642;51.364;6.788;2022-11-24T13:27:57;11.70;99.90
9215;DHT22;4642;51.364;6.788;2022-11-24T13:33:16;11.70;99.90
9215;DHT22;4642;51.364;6.788;2022-11-24T13:41:09;11.60;99.90
9215;DHT22;4642;51.364;6.788;2022-11-24T13:43:35;11.70;99.90
9215;DHT22;4642;51.364;6.788;2022-11-24T13:46:02;11.60;99.90
9215;DHT22;4642;51.364;6.788;2022-11-24T14:01:17;11.60;99.90
9215;DHT22;4642;51.364;6.788;2022-11-24T14:04:11;11.60;99.90
9215;DHT22;4642;51.364;6.788;2022-11-24T14:12:14;11.40;99.90
9215;DHT22;4642;51.364;6.788;2022-11-24T14:14:41;11.40;99.90
9215;DHT22;4642;51.364;6.788;2022-11-24T14:17:20;11.30;99.90
9215;DHT22;4642;51.364;6.788;2022-11-24T14:19:56;11.30;99.90
9215;DHT22;4642;51.364;6.788;2022-11-24T14:24:54;11.20;99.90
9215;DHT22;4642;51.364;6.788;2022-11-24T14:27:33;11.20;99.90
9215;DHT22;4642;51.364;6.788;2022-11-24T14:30:20;11.10;99.90
9215;DHT22;4642;51.364;6.788;2022-11-24T14:33:00;11.10;99.90
9215;DHT22;4642;51.364;6.788;2022-11-24T14:35:33;11.00;99.90
9215;DHT22;4642;51.364;6.788;2022-11-24T14:38:01;11.00;99.90
9215;DHT22;4642;51.364;6.788;2022-11-24T14:40:45;11.00;99.90
9215;DHT22;4642;51.364;6.788;2022-11-24T14:43:41;10.90;99.90
9215;DHT22;4642;51.364;6.788;2022-11-24T14:46:09;10.90;99.90
9215;DHT22;4642;51.364;6.788;2022-11-24T14:51:23;10.80;99.90
9215;DHT22;4642;51.364;6.788;2022-11-24T14:53:51;10.70;99.90
9215;DHT22;4642;51.364;6.788;2022-11-24T14:56:22;10.70;99.90
9215;DHT22;4642;51.364;6.788;2022-11-24T14:58:48;10.60;99.90
9215;DHT22;4642;51.364;6.788;2022-11-24T15:04:10;10.50;99.90
9215;DHT22;4642;51.364;6.788;2022-11-24T15:06:37;10.50;99.90
9215;DHT22;4642;51.364;6.788;2022-11-24T15:09:03;10.40;99.90
9215;DHT22;4642;51.364;6.788;2022-11-24T15:11:32;10.30;99.90
9215;DHT22;4642;51.364;6.788;2022-11-24T15:13:58;10.20;99.90
9215;DHT22;4642;51.364;6.788;2022-11-24T15:16:25;10.20;99.90
9215;DHT22;4642;51.364;6.788;2022-11-24T15:19:00;10.10;99.90
9215;DHT22;4642;51.364;6.788;2022-11-24T15:21:33;10.10;99.90
9215;DHT22;4642;51.364;6.788;2022-11-24T15:24:16;10.00;99.90
9215;DHT22;4642;51.364;6.788;2022-11-24T15:26:43;10.00;99.90
9215;DHT22;4642;51.364;6.788;2022-11-24T15:29:12;9.80;99.90
9215;DHT22;4642;51.364;6.788;2022-11-24T15:31:38;9.70;99.90
9215;DHT22;4642;51.364;6.788;2022-11-24T15:34:04;9.70;99.90
9215;DHT22;4642;51.364;6.788;2022-11-24T15:36:30;9.60;99.90
9215;DHT22;4642;51.364;6.788;2022-11-24T15:38:55;9.50;99.90
9215;DHT22;4642;51.364;6.788;2022-11-24T15:41:29;9.50;99.90
9215;DHT22;4642;51.364;6.788;2022-11-24T15:43:55;9.40;99.90
9215;DHT22;4642;51.364;6.788;2022-11-24T15:46:27;9.30;99.90
9215;DHT22;4642;51.364;6.788;2022-11-24T15:48:53;9.20;99.90
9215;DHT22;4642;51.364;6.788;2022-11-24T15:51:19;9.10;99.90
9215;DHT22;4642;51.364;6.788;2022-11-24T15:53:48;9.10;99.90
9215;DHT22;4642;51.364;6.788;2022-11-24T15:56:31;8.90;99.90
9215;DHT22;4642;51.364;6.788;2022-11-24T15:58:57;8.90;99.90
9215;DHT22;4642;51.364;6.788;2022-11-24T16:01:24;8.80;99.90
9215;DHT22;4642;51.364;6.788;2022-11-24T16:03:51;8.70;99.90
9215;DHT22;4642;51.364;6.788;2022-11-24T16:06:18;8.70;99.90
9215;DHT22;4642;51.364;6.788;2022-11-24T16:08:45;8.60;99.90
9215;DHT22;4642;51.364;6.788;2022-11-24T16:11:10;8.50;99.90
9215;DHT22;4642;51.364;6.788;2022-11-24T16:13:36;8.40;99.90
9215;DHT22;4642;51.364;6.788;2022-11-24T16:16:02;8.30;99.90
9215;DHT22;4642;51.364;6.788;2022-11-24T16:18:27;8.30;99.90
9215;DHT22;4642;51.364;6.788;2022-11-24T16:20:54;8.20;99.90
9215;DHT22;4642;51.364;6.788;2022-11-24T16:23:20;8.10;99.90
9215;DHT22;4642;51.364;6.788;2022-11-24T16:25:45;8.20;99.90
9215;DHT22;4642;51.364;6.788;2022-11-24T16:28:11;8.00;99.90
9215;DHT22;4642;51.364;6.788;2022-11-24T16:30:36;8.00;99.90
9215;DHT22;4642;51.364;6.788;2022-11-24T16:33:03;7.90;99.90
9215;DHT22;4642;51.364;6.788;2022-11-24T16:35:29;7.90;99.90
9215;DHT22;4642;51.364;6.788;2022-11-24T16:37:55;7.80;99.90
9215;DHT22;4642;51.364;6.788;2022-11-24T16:40:20;7.70;99.90
9215;DHT22;4642;51.364;6.788;2022-11-24T16:42:46;7.70;99.90
9215;DHT22;4642;51.364;6.788;2022-11-24T16:45:12;7.70;99.90
9215;DHT22;4642;51.364;6.788;2022-11-24T16:47:39;7.60;99.90
9215;DHT22;4642;51.364;6.788;2022-11-24T16:50:06;7.60;99.90
9215;DHT22;4642;51.364;6.788;2022-11-24T16:52:32;7.50;99.90
9215;DHT22;4642;51.364;6.788;2022-11-24T16:54:58;7.50;99.90
9215;DHT22;4642;51.364;6.788;2022-11-24T16:57:23;7.40;99.90
9215;DHT22;4642;51.364;6.788;2022-11-24T16:59:49;7.40;99.90
9215;DHT22;4642;51.364;6.788;2022-11-24T17:02:14;7.40;99.90
9215;DHT22;4642;51.364;6.788;2022-11-24T17:04:40;7.40;99.90
9215;DHT22;4642;51.364;6.788;2022-11-24T17:07:06;7.50;99.90
9215;DHT22;4642;51.364;6.788;2022-11-24T17:09:32;7.40;99.90
9215;DHT22;4642;51.364;6.788;2022-11-24T17:11:57;7.40;99.90
9215;DHT22;4642;51.364;6.788;2022-11-24T17:14:23;7.40;99.90
9215;DHT22;4642;51.364;6.788;2022-11-24T17:16:48;7.50;99.90
9215;DHT22;4642;51.364;6.788;2022-11-24T17:19:14;7.50;99.90
9215;DHT22;4642;51.364;6.788;2022-11-24T17:21:40;7.50;99.90
9215;DHT22;4642;51.364;6.788;2022-11-24T17:24:06;7.50;99.90
9215;DHT22;4642;51.364;6.788;2022-11-24T17:26:32;7.50;99.90
9215;DHT22;4642;51.364;6.788;2022-11-24T17:28:59;7.60;99.90
9215;DHT22;4642;51.364;6.788;2022-11-24T17:31:28;7.50;99.90
9215;DHT22;4642;51.364;6.788;2022-11-24T17:34:00;7.50;99.90
9215;DHT22;4642;51.364;6.788;2022-11-24T17:36:26;7.50;99.90
9215;DHT22;4642;51.364;6.788;2022-11-24T17:38:52;7.50;99.90
9215;DHT22;4642;51.364;6.788;2022-11-24T17:41:18;7.60;99.90
9215;DHT22;4642;51.364;6.788;2022-11-24T17:43:49;7.60;99.90
9215;DHT22;4642;51.364;6.788;2022-11-24T17:46:15;7.60;99.90
9215;DHT22;4642;51.364;6.788;2022-11-24T17:48:40;7.60;99.90
9215;DHT22;4642;51.364;6.788;2022-11-24T17:51:09;7.60;99.90
9215;DHT22;4642;51.364;6.788;2022-11-24T17:53:38;7.60;99.90
9215;DHT22;4642;51.364;6.788;2022-11-24T17:56:05;7.60;99.90
9215;DHT22;4642;51.364;6.788;2022-11-24T17:58:32;7.60;99.90
9215;DHT22;4642;51.364;6.788;2022-11-24T18:00:59;7.60;99.90
9215;DHT22;4642;51.364;6.788;2022-11-24T18:03:25;7.60;99.90
9215;DHT22;4642;51.364;6.788;2022-11-24T18:05:53;7.60;99.90
9215;DHT22;4642;51.364;6.788;2022-11-24T18:08:19;7.60;99.90